Terminal Aerodrome Forecast
Issued by NWS

Home | Current Version | Previous Version | Text Only | Print | Product List | Glossary On
Versions: 1 2 3 4 5 6 7 8 9 10 11 12 13 14 15
000
FTAK31 PAJN 230531
TAFAJN
TAF
PAJN 230531Z 2306/2406 12015KT P6SM -RA FEW006 SCT010 OVC025
      TEMPO 2306/2310 12015G25KT 3SM -RA BR SCT004 BKN010 OVC025
     FM231000 12015KT 4SM RA BR FEW006 BKN015 OVC025
      TEMPO 2310/2314 12015G25KT 2SM RA BR SCT004 BKN006 OVC015
     FM231400 12015G25KT 3SM RA BR SCT004 OVC010 WS020/14035KT
     FM240000 12015KT 5SM -RA BR SCT010 BKN025 OVC040=

USA.gov is the U.S. government's official web portal to all federal, state and local government web resources and services.